Time;durP1;ratioP1;P1;durP2;ratioP2;P2;SDS_P1;SDS_P2;PMS_P1;PMS_P2;Temp;Humidity;BMP_temperature;BMP_pressure;BME280_temperature;BME280_humidity;BME280_pressure;Samples;Min_cycle;Max_cycle;Signal;HPM_P1;HPM_P2
2024/02/22 05:01:19;;;;;;;1.17;1.07;;;8.20;97.30;;;;;;5825934;23;20561;-86
2024/02/22 05:03:48;;;;;;;0.90;0.80;;;8.20;97.30;;;;;;4950619;28;20442;-84
2024/02/22 05:06:20;;;;;;;0.90;0.80;;;8.30;97.30;;;;;;4960175;28;20518;-86
2024/02/22 05:08:48;;;;;;;1.13;1.13;;;8.30;97.30;;;;;;4956329;28;20426;-87
2024/02/22 05:11:18;;;;;;;1.13;1.03;;;8.30;97.30;;;;;;4953441;28;21007;-85
2024/02/22 05:13:50;;;;;;;1.83;1.73;;;8.30;97.30;;;;;;4938700;29;20440;-88
2024/02/22 05:16:18;;;;;;;0.90;0.80;;;8.30;97.30;;;;;;4941287;28;20427;-90
2024/02/22 05:18:53;;;;;;;0.90;0.80;;;8.30;97.30;;;;;;4950178;28;20427;-86
2024/02/22 05:21:19;;;;;;;0.90;0.80;;;8.30;97.30;;;;;;4941092;29;20529;-87
2024/02/22 05:23:48;;;;;;;1.00;0.90;;;8.30;97.30;;;;;;4934597;29;20941;-88
2024/02/22 05:26:37;;;;;;;0.90;0.80;;;8.30;97.30;;;;;;4933761;29;20498;-89
2024/02/22 05:29:28;;;;;;;1.13;1.03;;;8.20;97.30;;;;;;4927584;29;20800;-88
2024/02/22 05:31:59;;;;;;;1.33;1.10;;;8.30;97.30;;;;;;4928172;29;20476;-84
2024/02/22 05:34:27;;;;;;;0.80;0.70;;;8.20;97.30;;;;;;4936046;28;20408;-86
2024/02/22 05:36:59;;;;;;;1.00;0.90;;;8.20;97.30;;;;;;4934157;29;20434;-87
2024/02/22 05:39:27;;;;;;;1.23;1.13;;;8.20;97.30;;;;;;4935364;29;20431;-88
2024/02/22 05:41:59;;;;;;;0.80;0.70;;;8.20;97.30;;;;;;4941493;28;20468;-89
2024/02/22 05:44:39;;;;;;;0.90;0.80;;;8.20;97.30;;;;;;4934805;29;20464;-87
2024/02/22 05:50:09;;;;;;;1.10;1.00;;;8.20;97.30;;;;;;4935827;29;20504;-87
2024/02/22 05:55:59;;;;;;;0.90;0.80;;;8.10;97.30;;;;;;4935621;29;20446;-88
2024/02/22 05:58:30;;;;;;;1.30;1.20;;;8.10;97.30;;;;;;4943163;28;20428;-89
2024/02/22 06:01:11;;;;;;;1.10;1.00;;;8.10;97.30;;;;;;4954760;29;20672;-89
2024/02/22 06:03:37;;;;;;;1.17;1.07;;;8.00;97.30;;;;;;4970319;23;20589;-86
2024/02/22 06:06:03;;;;;;;1.10;1.00;;;8.00;97.30;;;;;;4947265;29;20430;-85
2024/02/22 06:08:28;;;;;;;1.40;1.30;;;8.00;97.30;;;;;;4947948;28;20438;-85
2024/02/22 06:10:54;;;;;;;1.37;1.27;;;8.00;97.30;;;;;;4947600;28;20458;-86
2024/02/22 06:13:19;;;;;;;1.57;1.47;;;8.00;97.30;;;;;;4936696;29;20210;-85
2024/02/22 06:15:45;;;;;;;1.00;0.90;;;8.00;97.30;;;;;;4935962;29;20452;-85
2024/02/22 06:18:10;;;;;;;1.00;0.90;;;8.00;97.30;;;;;;4929546;29;20184;-85
2024/02/22 06:20:36;;;;;;;1.00;0.90;;;8.00;97.30;;;;;;4933109;29;20658;-85
2024/02/22 06:23:03;;;;;;;1.00;0.90;;;8.00;97.30;;;;;;4933542;29;20493;-85
2024/02/22 06:25:29;;;;;;;0.97;0.80;;;8.00;97.30;;;;;;4940640;29;20183;-84
2024/02/22 06:27:56;;;;;;;0.87;0.77;;;8.00;97.30;;;;;;4931053;29;20518;-85
2024/02/22 06:30:21;;;;;;;1.20;1.10;;;8.00;97.30;;;;;;4931188;28;20184;-85
2024/02/22 06:32:50;;;;;;;1.57;1.47;;;8.10;97.30;;;;;;4931706;29;20538;-85
2024/02/22 06:35:21;;;;;;;1.00;0.90;;;8.10;97.30;;;;;;4932021;29;20404;-85
2024/02/22 06:37:47;;;;;;;1.03;1.00;;;8.10;97.30;;;;;;4935825;29;20428;-85
2024/02/22 06:40:14;;;;;;;6.73;1.90;;;8.10;97.30;;;;;;4932034;29;20494;-85
2024/02/22 06:42:40;;;;;;;3.83;1.13;;;8.10;97.30;;;;;;4938369;23;20581;-68
2024/02/22 06:45:06;;;;;;;1.37;1.27;;;8.10;97.30;;;;;;4930782;29;20456;-67
2024/02/22 06:47:31;;;;;;;1.27;1.17;;;8.10;97.30;;;;;;4937143;29;20183;-69
2024/02/22 06:49:57;;;;;;;1.27;1.17;;;8.10;97.30;;;;;;4929575;29;20458;-67
2024/02/22 06:52:25;;;;;;;1.13;1.03;;;8.10;97.30;;;;;;4917745;29;20695;-67
2024/02/22 06:54:51;;;;;;;1.27;1.17;;;8.20;97.30;;;;;;4912381;29;20371;-67
2024/02/22 06:57:17;;;;;;;0.80;0.70;;;8.20;97.30;;;;;;4913562;29;20752;-67
2024/02/22 06:59:43;;;;;;;0.97;0.87;;;8.20;97.30;;;;;;4913984;29;20187;-68
2024/02/22 07:02:08;;;;;;;1.00;0.90;;;8.20;97.30;;;;;;4915242;29;20448;-68
2024/02/22 07:04:34;;;;;;;0.87;0.77;;;8.20;97.30;;;;;;4913842;29;20428;-67
2024/02/22 07:07:00;;;;;;;22.47;1.57;;;8.30;97.30;;;;;;4913984;29;20189;-67
2024/02/22 07:09:25;;;;;;;1.60;1.43;;;8.30;97.30;;;;;;4913802;29;20323;-68
2024/02/22 07:11:51;;;;;;;0.80;0.70;;;8.30;97.30;;;;;;4914852;29;20215;-67
2024/02/22 07:14:16;;;;;;;1.03;0.93;;;8.30;97.30;;;;;;4914770;29;20188;-68
2024/02/22 07:16:42;;;;;;;0.90;0.80;;;8.30;97.30;;;;;;4913856;29;20188;-67
2024/02/22 07:19:08;;;;;;;0.90;0.80;;;8.30;97.30;;;;;;4918928;29;20211;-67
2024/02/22 07:21:35;;;;;;;1.10;1.00;;;8.40;97.30;;;;;;4914861;29;20204;-67
2024/02/22 07:24:03;;;;;;;0.80;0.70;;;8.40;97.30;;;;;;4914902;29;20429;-68
2024/02/22 07:26:30;;;;;;;1.37;1.27;;;8.40;97.30;;;;;;4913653;29;20492;-68
2024/02/22 07:28:57;;;;;;;1.03;0.93;;;8.40;97.30;;;;;;4913465;29;20788;-67
2024/02/22 07:31:22;;;;;;;1.00;0.90;;;8.50;97.30;;;;;;4914863;29;20483;-67
2024/02/22 07:33:48;;;;;;;1.00;0.90;;;8.50;97.30;;;;;;4914459;29;20428;-67
2024/02/22 07:36:13;;;;;;;1.17;1.07;;;8.50;97.30;;;;;;4914736;29;20219;-69
2024/02/22 07:38:42;;;;;;;1.00;0.90;;;8.50;97.30;;;;;;4919704;29;20186;-67
2024/02/22 07:41:14;;;;;;;0.90;0.80;;;8.50;97.30;;;;;;4913412;29;20236;-68
2024/02/22 07:43:43;;;;;;;2.30;1.10;;;8.60;97.30;;;;;;4912203;29;20553;-67
2024/02/22 07:46:11;;;;;;;0.90;0.80;;;8.60;97.30;;;;;;4912778;29;20733;-68
2024/02/22 07:48:40;;;;;;;0.80;0.70;;;8.60;97.30;;;;;;4913754;29;20499;-67
2024/02/22 07:51:06;;;;;;;1.43;1.27;;;8.70;97.30;;;;;;4912342;29;20543;-67
2024/02/22 07:53:34;;;;;;;0.90;0.80;;;8.70;97.30;;;;;;4912821;29;20433;-67
2024/02/22 07:56:02;;;;;;;3.60;1.93;;;8.70;97.30;;;;;;4913946;29;20439;-68
2024/02/22 07:58:29;;;;;;;0.80;0.70;;;8.80;97.30;;;;;;4912905;29;20460;-67
2024/02/22 08:00:56;;;;;;;1.03;0.93;;;8.80;97.30;;;;;;4914016;29;20495;-67
2024/02/22 08:03:22;;;;;;;1.00;0.90;;;8.80;97.30;;;;;;4912745;29;20436;-67
2024/02/22 08:05:48;;;;;;;0.80;0.70;;;8.80;97.30;;;;;;4916033;29;20527;-67
2024/02/22 08:08:15;;;;;;;0.80;0.70;;;8.90;97.30;;;;;;4921562;29;20195;-68
2024/02/22 08:10:41;;;;;;;0.80;0.70;;;8.90;97.30;;;;;;4919852;29;20464;-68
2024/02/22 08:13:06;;;;;;;0.90;0.80;;;9.00;97.30;;;;;;4918387;29;20424;-68
2024/02/22 08:15:32;;;;;;;1.43;1.33;;;9.00;97.30;;;;;;4919591;29;20665;-68
2024/02/22 08:17:59;;;;;;;0.90;0.80;;;9.00;97.30;;;;;;4913794;29;20373;-67
2024/02/22 08:20:25;;;;;;;0.80;0.70;;;9.10;97.30;;;;;;4912286;29;20440;-68
2024/02/22 08:22:50;;;;;;;0.90;0.80;;;9.10;97.30;;;;;;4912390;29;20421;-68
2024/02/22 08:25:17;;;;;;;0.80;0.70;;;9.10;97.30;;;;;;4917679;29;20204;-68
2024/02/22 08:27:42;;;;;;;1.13;1.03;;;9.10;97.30;;;;;;4911484;29;20204;-67
2024/02/22 08:30:09;;;;;;;0.90;0.80;;;9.20;97.30;;;;;;4916369;29;20455;-67
2024/02/22 08:32:35;;;;;;;0.90;0.80;;;9.20;97.30;;;;;;4912075;29;20260;-68
2024/02/22 08:35:00;;;;;;;1.10;1.00;;;9.30;97.30;;;;;;4918711;29;20511;-69
2024/02/22 08:37:26;;;;;;;0.87;0.77;;;9.40;97.30;;;;;;4915027;29;20177;-68
2024/02/22 08:39:52;;;;;;;0.80;0.70;;;9.50;97.30;;;;;;4918833;29;20188;-68
2024/02/22 08:42:20;;;;;;;1.43;1.33;;;9.50;97.30;;;;;;4912597;29;20451;-67
2024/02/22 08:44:45;;;;;;;0.80;0.70;;;9.60;97.30;;;;;;4913150;29;20181;-68
2024/02/22 08:47:11;;;;;;;0.80;0.70;;;9.60;97.30;;;;;;4916608;29;20462;-68
2024/02/22 08:49:38;;;;;;;1.00;0.90;;;9.60;97.30;;;;;;4912327;29;20197;-68
2024/02/22 08:52:06;;;;;;;1.23;1.13;;;9.70;97.30;;;;;;4913369;29;20212;-68
2024/02/22 08:54:31;;;;;;;1.00;0.90;;;9.70;97.30;;;;;;4911550;29;20429;-69
2024/02/22 08:56:57;;;;;;;1.33;1.07;;;9.80;97.30;;;;;;4921459;29;20423;-68
2024/02/22 08:59:23;;;;;;;0.87;0.80;;;9.80;97.30;;;;;;4926220;29;20183;-67
2024/02/22 09:01:49;;;;;;;0.90;0.80;;;9.90;97.30;;;;;;4918233;29;20232;-68
2024/02/22 09:04:14;;;;;;;2.87;0.90;;;9.90;97.30;;;;;;4909764;29;20472;-70
2024/02/22 09:06:42;;;;;;;1.20;1.10;;;10.00;97.30;;;;;;4910686;29;20191;-69
2024/02/22 09:09:07;;;;;;;1.00;0.90;;;10.00;97.30;;;;;;4911512;29;20188;-69
2024/02/22 09:11:33;;;;;;;2.70;0.90;;;10.10;97.30;;;;;;4911092;29;20831;-69
2024/02/22 09:13:59;;;;;;;0.90;0.80;;;10.20;97.30;;;;;;4917790;29;20744;-69
2024/02/22 09:16:25;;;;;;;0.80;0.70;;;10.20;97.30;;;;;;4912288;29;20181;-69
2024/02/22 09:18:51;;;;;;;2.60;1.13;;;10.30;97.30;;;;;;4912672;29;20173;-69
2024/02/22 09:21:16;;;;;;;1.00;0.90;;;10.40;97.30;;;;;;4912589;29;20995;-69
2024/02/22 09:23:44;;;;;;;0.90;0.80;;;10.40;97.30;;;;;;4911301;29;20323;-69
2024/02/22 09:26:12;;;;;;;0.80;0.70;;;10.50;97.30;;;;;;4912741;29;20172;-69
2024/02/22 09:28:38;;;;;;;0.90;0.80;;;10.50;97.30;;;;;;4912418;29;20448;-69
2024/02/22 09:31:04;;;;;;;0.80;0.80;;;10.70;97.30;;;;;;4912688;29;20464;-68
2024/02/22 09:33:30;;;;;;;0.90;0.80;;;10.80;97.30;;;;;;4912717;29;20189;-69
2024/02/22 09:35:56;;;;;;;0.87;0.77;;;11.00;97.30;;;;;;4912139;29;20420;-70
2024/02/22 09:38:21;;;;;;;0.80;0.70;;;11.10;97.30;;;;;;4916395;29;20187;-67
2024/02/22 09:40:48;;;;;;;1.00;0.90;;;11.30;97.30;;;;;;4917345;29;20440;-69
2024/02/22 09:43:17;;;;;;;0.90;0.80;;;11.40;97.30;;;;;;4912041;29;20303;-70
2024/02/22 09:45:44;;;;;;;0.80;0.70;;;11.60;97.30;;;;;;4909556;29;20853;-72
2024/02/22 09:48:10;;;;;;;1.00;0.90;;;11.60;97.30;;;;;;4912134;29;20456;-73
2024/02/22 09:50:37;;;;;;;0.80;0.70;;;11.60;97.30;;;;;;4910625;29;20472;-68
2024/02/22 09:53:03;;;;;;;1.00;0.90;;;11.60;97.30;;;;;;4912059;29;20429;-71
2024/02/22 09:55:29;;;;;;;0.93;0.83;;;11.50;97.30;;;;;;4917135;29;20408;-69
2024/02/22 09:57:55;;;;;;;1.57;0.93;;;11.40;97.30;;;;;;4910789;29;20860;-75
2024/02/22 10:00:20;;;;;;;0.83;0.73;;;11.40;97.30;;;;;;4911909;29;20941;-69
2024/02/22 10:02:46;;;;;;;0.83;0.73;;;11.30;97.30;;;;;;4910315;29;20176;-69
2024/02/22 10:05:12;;;;;;;0.90;0.80;;;11.40;97.30;;;;;;4910774;29;20180;-71
2024/02/22 10:07:39;;;;;;;0.90;0.80;;;11.40;97.30;;;;;;4910683;29;20456;-69
2024/02/22 10:10:06;;;;;;;1.70;0.90;;;11.40;97.30;;;;;;4911953;29;20617;-70
2024/02/22 10:12:32;;;;;;;2.53;1.53;;;11.40;97.30;;;;;;4911797;29;20519;-70
2024/02/22 10:14:59;;;;;;;0.90;0.80;;;11.40;97.30;;;;;;4916643;29;20420;-69
2024/02/22 10:17:28;;;;;;;1.10;1.00;;;11.40;97.30;;;;;;4910536;29;20429;-69
2024/02/22 10:19:58;;;;;;;1.53;0.97;;;11.50;97.30;;;;;;4912274;29;20513;-69
2024/02/22 10:22:26;;;;;;;1.00;0.90;;;11.60;97.30;;;;;;4911383;29;20673;-68
2024/02/22 10:24:52;;;;;;;0.90;0.80;;;11.60;97.30;;;;;;4916191;29;20417;-74
2024/02/22 10:27:25;;;;;;;1.80;0.80;;;11.70;97.30;;;;;;4914814;29;20470;-69
2024/02/22 10:29:51;;;;;;;1.20;1.10;;;11.80;97.30;;;;;;4915044;29;20464;-69
2024/02/22 10:32:18;;;;;;;0.90;0.80;;;11.70;97.30;;;;;;4913039;29;20472;-68
2024/02/22 10:34:48;;;;;;;0.90;0.80;;;11.70;97.30;;;;;;4912287;29;20416;-69
2024/02/22 10:37:13;;;;;;;1.00;0.90;;;11.70;97.30;;;;;;4914237;29;21007;-68
2024/02/22 10:39:39;;;;;;;0.80;0.70;;;11.70;97.30;;;;;;4914562;29;20435;-69
2024/02/22 10:42:05;;;;;;;0.80;0.70;;;11.70;97.30;;;;;;4913836;29;20200;-69
2024/02/22 10:44:31;;;;;;;1.20;1.10;;;11.80;97.30;;;;;;4915121;29;20530;-67
2024/02/22 10:46:57;;;;;;;3.43;1.67;;;11.80;97.30;;;;;;4913925;29;20195;-68
2024/02/22 10:49:27;;;;;;;0.70;0.70;;;11.90;97.30;;;;;;4913986;29;20184;-68
2024/02/22 10:51:55;;;;;;;0.90;0.80;;;11.90;97.30;;;;;;4914983;29;20499;-70
2024/02/22 10:54:24;;;;;;;0.90;0.80;;;12.00;97.30;;;;;;4915172;29;20424;-69
2024/02/22 10:56:49;;;;;;;1.00;0.90;;;12.20;97.30;;;;;;4913706;29;20433;-69
2024/02/22 10:59:20;;;;;;;0.90;0.80;;;12.30;97.30;;;;;;4914958;29;20431;-68
2024/02/22 11:01:47;;;;;;;2.40;1.47;;;12.40;97.30;;;;;;4912001;29;20200;-66
2024/02/22 11:04:14;;;;;;;1.23;1.13;;;12.60;97.30;;;;;;4915245;29;20505;-69
2024/02/22 11:06:41;;;;;;;0.97;0.87;;;12.60;97.30;;;;;;4914928;29;20425;-67
2024/02/22 11:09:18;;;;;;;0.87;0.77;;;12.50;97.30;;;;;;4913852;29;20424;-71
2024/02/22 11:11:44;;;;;;;0.80;0.70;;;12.50;97.30;;;;;;4914257;29;20887;-68
2024/02/22 11:14:09;;;;;;;0.80;0.70;;;12.40;97.30;;;;;;4919346;29;20439;-71
2024/02/22 11:16:38;;;;;;;1.00;0.90;;;12.40;97.30;;;;;;4913750;29;20921;-69
2024/02/22 11:19:12;;;;;;;1.07;0.97;;;12.30;97.30;;;;;;4917295;29;20457;-68
2024/02/22 11:21:38;;;;;;;2.50;0.97;;;12.30;97.30;;;;;;4920023;29;20499;-69
2024/02/22 11:24:08;;;;;;;1.53;1.17;;;12.30;97.30;;;;;;4913778;29;20515;-70
2024/02/22 11:26:34;;;;;;;2.20;0.93;;;12.30;97.30;;;;;;4914945;29;20425;-70
2024/02/22 11:29:00;;;;;;;0.80;0.70;;;12.30;97.30;;;;;;4914878;29;20500;-70
2024/02/22 11:31:27;;;;;;;0.90;0.80;;;12.30;97.30;;;;;;4918788;29;20226;-69
2024/02/22 11:33:53;;;;;;;1.30;1.17;;;12.40;97.30;;;;;;4913484;29;20838;-69
2024/02/22 11:36:19;;;;;;;0.70;0.70;;;12.50;97.30;;;;;;4913275;29;20428;-69
2024/02/22 11:38:45;;;;;;;0.97;0.87;;;12.60;97.30;;;;;;4917262;29;20431;-69
2024/02/22 11:41:12;;;;;;;0.80;0.70;;;12.70;97.30;;;;;;4911992;29;20519;-70
2024/02/22 11:43:38;;;;;;;0.80;0.70;;;12.70;97.30;;;;;;4930209;29;20523;-69
2024/02/22 11:46:05;;;;;;;0.80;0.70;;;12.80;97.30;;;;;;4913970;29;20428;-70
2024/02/22 11:48:30;;;;;;;0.90;0.80;;;12.90;97.30;;;;;;4910893;29;20259;-71
2024/02/22 11:50:56;;;;;;;0.80;0.70;;;13.00;97.30;;;;;;4912657;29;20896;-71
2024/02/22 11:53:22;;;;;;;0.80;0.70;;;13.10;97.30;;;;;;4914329;29;20185;-69
2024/02/22 11:55:51;;;;;;;4.23;1.63;;;13.30;97.30;;;;;;4912687;29;20431;-69
2024/02/22 11:58:18;;;;;;;1.10;1.00;;;13.50;97.30;;;;;;4914239;29;20195;-69
2024/02/22 12:00:44;;;;;;;1.53;1.00;;;13.60;97.30;;;;;;4910095;29;20436;-70
2024/02/22 12:03:12;;;;;;;1.00;0.90;;;13.80;97.30;;;;;;4913797;29;20421;-71
2024/02/22 12:05:38;;;;;;;0.90;0.80;;;13.80;97.30;;;;;;4912605;29;20585;-66
2024/02/22 12:08:05;;;;;;;1.17;1.10;;;14.00;97.30;;;;;;4913413;29;20692;-69
2024/02/22 12:10:30;;;;;;;1.50;1.40;;;13.80;97.30;;;;;;4912353;29;21120;-72
2024/02/22 12:12:56;;;;;;;0.80;0.70;;;13.70;97.30;;;;;;4912387;29;20508;-70
2024/02/22 12:15:21;;;;;;;0.80;0.70;;;13.60;97.30;;;;;;4913450;29;20185;-72
2024/02/22 12:17:49;;;;;;;0.70;0.70;;;13.70;97.30;;;;;;4913571;29;20228;-70
2024/02/22 12:20:19;;;;;;;0.90;0.80;;;13.70;97.30;;;;;;4909840;29;20173;-70
2024/02/22 12:22:45;;;;;;;0.90;0.80;;;13.60;97.30;;;;;;4913341;29;20419;-71
2024/02/22 12:25:10;;;;;;;0.90;0.80;;;13.40;97.30;;;;;;4911912;29;20457;-68
2024/02/22 12:27:36;;;;;;;1.00;0.90;;;13.20;97.30;;;;;;4915662;29;20940;-69
2024/02/22 12:30:02;;;;;;;1.00;0.90;;;13.20;97.30;;;;;;4913295;29;20394;-70
2024/02/22 12:32:28;;;;;;;0.80;0.70;;;13.10;97.30;;;;;;4911722;29;20217;-70
2024/02/22 12:34:56;;;;;;;0.60;0.60;;;13.20;97.30;;;;;;4912051;29;20211;-69
2024/02/22 12:37:21;;;;;;;0.80;0.70;;;13.10;97.30;;;;;;4915141;29;20432;-69
2024/02/22 12:39:48;;;;;;;0.80;0.70;;;13.00;97.30;;;;;;4912095;29;20511;-69
2024/02/22 12:42:13;;;;;;;0.80;0.70;;;12.90;97.30;;;;;;4916768;29;20813;-68
2024/02/22 12:44:39;;;;;;;0.90;0.80;;;12.90;97.30;;;;;;4913396;29;20531;-68
2024/02/22 12:47:10;;;;;;;0.90;0.80;;;12.90;97.30;;;;;;4915070;29;20185;-71
2024/02/22 12:49:38;;;;;;;0.90;0.80;;;12.90;97.30;;;;;;4913116;29;20235;-70
2024/02/22 12:52:04;;;;;;;0.80;0.70;;;12.90;97.30;;;;;;4912672;29;20479;-68
2024/02/22 12:54:30;;;;;;;1.00;0.90;;;12.90;97.30;;;;;;4911563;29;20467;-70
2024/02/22 12:56:55;;;;;;;1.00;0.90;;;12.90;97.30;;;;;;4912801;29;20452;-68
2024/02/22 12:59:21;;;;;;;0.90;0.80;;;12.90;97.30;;;;;;4911719;29;20336;-68
2024/02/22 13:01:47;;;;;;;1.10;1.00;;;12.90;97.30;;;;;;4912763;29;20259;-68
2024/02/22 13:04:14;;;;;;;0.90;0.80;;;12.90;97.30;;;;;;4918021;29;20184;-69
2024/02/22 13:06:39;;;;;;;1.30;1.20;;;12.90;97.30;;;;;;4913202;29;20452;-70
2024/02/22 13:09:05;;;;;;;1.73;1.47;;;12.80;97.30;;;;;;4909484;29;20481;-68
2024/02/22 13:11:31;;;;;;;0.90;0.80;;;12.80;97.30;;;;;;4911986;29;20208;-69
2024/02/22 13:13:57;;;;;;;0.90;0.80;;;12.90;97.30;;;;;;4912414;29;20420;-69
2024/02/22 13:16:27;;;;;;;0.90;0.80;;;12.90;97.30;;;;;;4912560;29;20448;-69
2024/02/22 13:18:56;;;;;;;0.93;0.83;;;12.90;97.30;;;;;;4913104;29;20613;-69
2024/02/22 13:21:22;;;;;;;1.10;1.00;;;13.00;97.30;;;;;;4914808;29;20515;-69
2024/02/22 13:23:47;;;;;;;1.00;0.90;;;13.00;97.30;;;;;;4910549;29;20948;-69
2024/02/22 13:26:13;;;;;;;0.80;0.70;;;13.00;97.30;;;;;;4911238;29;20431;-68
2024/02/22 13:28:38;;;;;;;1.33;0.90;;;13.00;97.30;;;;;;4914193;29;20248;-69
2024/02/22 13:31:04;;;;;;;1.73;1.63;;;13.00;97.30;;;;;;4910964;29;20212;-69
2024/02/22 13:33:29;;;;;;;1.27;1.17;;;13.00;97.30;;;;;;4963501;23;20241;-83
2024/02/22 13:35:55;;;;;;;0.80;0.70;;;13.20;97.30;;;;;;4959178;28;20829;-81
2024/02/22 13:38:21;;;;;;;0.90;0.80;;;13.20;97.30;;;;;;4960041;28;20251;-80
2024/02/22 13:40:46;;;;;;;0.90;0.80;;;13.20;97.30;;;;;;4952360;28;20217;-85
2024/02/22 13:43:15;;;;;;;0.90;0.80;;;13.20;97.30;;;;;;4941743;28;20187;-85
2024/02/22 13:45:43;;;;;;;0.93;0.90;;;13.20;97.30;;;;;;4932529;29;20183;-79
2024/02/22 13:48:13;;;;;;;0.90;0.80;;;13.10;97.30;;;;;;4932758;29;21064;-82
2024/02/22 13:50:42;;;;;;;0.90;0.80;;;13.00;97.30;;;;;;4939335;29;20463;-84
2024/02/22 13:53:08;;;;;;;0.90;0.80;;;13.00;97.30;;;;;;4932757;29;20432;-79
2024/02/22 13:55:33;;;;;;;0.90;0.80;;;13.00;97.30;;;;;;4932714;29;20439;-82
2024/02/22 13:57:59;;;;;;;0.90;0.80;;;12.90;97.30;;;;;;4931608;29;20432;-79
2024/02/22 14:00:25;;;;;;;0.90;0.80;;;12.80;97.30;;;;;;4932016;29;20435;-81
2024/02/22 14:02:51;;;;;;;1.00;0.90;;;12.80;97.30;;;;;;4930725;29;20530;-82
2024/02/22 14:05:17;;;;;;;1.00;0.90;;;12.70;97.30;;;;;;4930463;29;20192;-83
2024/02/22 14:07:48;;;;;;;0.90;0.80;;;12.70;97.30;;;;;;4932926;29;20602;-81
2024/02/22 14:10:14;;;;;;;0.90;0.80;;;12.70;97.30;;;;;;4935952;29;20270;-80
2024/02/22 14:12:39;;;;;;;0.90;0.80;;;12.70;97.30;;;;;;4934741;29;20566;-80
2024/02/22 14:15:05;;;;;;;0.83;0.77;;;12.70;97.30;;;;;;4941020;29;20234;-83
2024/02/22 14:17:31;;;;;;;0.93;0.83;;;12.70;97.30;;;;;;4941440;29;20565;-81
2024/02/22 14:19:56;;;;;;;0.90;0.80;;;12.70;97.30;;;;;;4935037;29;20419;-84
2024/02/22 14:22:22;;;;;;;1.07;1.00;;;12.80;97.30;;;;;;4934552;29;20208;-79
2024/02/22 14:24:47;;;;;;;0.90;0.80;;;12.80;97.30;;;;;;4936650;29;20194;-85
2024/02/22 14:27:13;;;;;;;0.87;0.77;;;12.80;97.30;;;;;;4938396;28;20202;-88
2024/02/22 14:29:39;;;;;;;2.40;1.30;;;12.90;97.30;;;;;;4947242;29;20179;-85
2024/02/22 14:32:05;;;;;;;0.90;0.80;;;12.90;97.30;;;;;;4938726;29;20486;-83
2024/02/22 14:34:33;;;;;;;1.37;1.27;;;13.00;97.30;;;;;;4944170;29;20609;-84
2024/02/22 14:36:58;;;;;;;0.90;0.80;;;13.00;97.30;;;;;;4938090;29;20931;-86
2024/02/22 14:39:24;;;;;;;0.60;0.60;;;13.00;97.30;;;;;;4944607;29;20431;-82
2024/02/22 14:41:49;;;;;;;0.90;0.80;;;13.10;97.30;;;;;;4936727;29;20208;-83
2024/02/22 14:44:15;;;;;;;0.90;0.80;;;13.00;97.30;;;;;;4937330;29;20734;-83
2024/02/22 14:46:40;;;;;;;0.90;0.80;;;13.00;97.30;;;;;;4935152;29;20191;-79
2024/02/22 14:49:06;;;;;;;0.83;0.73;;;13.00;97.30;;;;;;4934986;29;20187;-80
2024/02/22 14:51:33;;;;;;;1.10;1.00;;;13.00;97.30;;;;;;4936793;29;20216;-81
2024/02/22 14:53:59;;;;;;;0.87;0.77;;;12.90;97.30;;;;;;4937219;29;20211;-82
2024/02/22 14:56:24;;;;;;;0.80;0.70;;;12.90;97.30;;;;;;4936137;29;20502;-85
2024/02/22 14:58:50;;;;;;;0.97;0.87;;;12.90;97.30;;;;;;4936849;29;20179;-83
2024/02/22 15:01:16;;;;;;;0.90;0.80;;;12.90;97.30;;;;;;4943614;28;20210;-76
2024/02/22 15:03:41;;;;;;;0.90;0.80;;;12.90;97.30;;;;;;4935062;29;20191;-79
2024/02/22 15:06:07;;;;;;;1.00;0.90;;;12.90;97.30;;;;;;4935014;29;20763;-77
2024/02/22 15:08:35;;;;;;;1.27;1.17;;;12.90;97.30;;;;;;4939290;29;20578;-82
2024/02/22 15:11:02;;;;;;;0.80;0.70;;;12.90;97.30;;;;;;4937171;29;20475;-82
2024/02/22 15:13:27;;;;;;;1.20;1.10;;;13.00;97.30;;;;;;4927226;29;20944;-82
2024/02/22 15:15:53;;;;;;;1.10;1.00;;;13.00;97.30;;;;;;4934029;29;20438;-83
2024/02/22 15:18:18;;;;;;;0.90;0.80;;;13.00;97.30;;;;;;4933843;29;20184;-80
2024/02/22 15:20:44;;;;;;;1.00;0.90;;;13.00;97.30;;;;;;4943010;29;20688;-80
2024/02/22 15:23:09;;;;;;;0.80;0.70;;;13.00;97.30;;;;;;4942277;29;20194;-82
2024/02/22 15:25:35;;;;;;;0.90;0.80;;;13.00;97.30;;;;;;4935307;29;20195;-83
2024/02/22 15:28:00;;;;;;;0.83;0.73;;;13.00;97.30;;;;;;4943170;29;20565;-83
2024/02/22 15:30:26;;;;;;;0.90;0.80;;;13.00;97.30;;;;;;4931588;29;20290;-77
2024/02/22 15:32:56;;;;;;;1.00;0.90;;;13.00;97.30;;;;;;4933165;29;20227;-81
2024/02/22 15:35:22;;;;;;;0.87;0.77;;;13.00;97.30;;;;;;4933163;29;20213;-80
2024/02/22 15:37:47;;;;;;;0.80;0.70;;;13.00;97.30;;;;;;4935145;29;20412;-75
2024/02/22 15:40:16;;;;;;;0.90;0.80;;;13.00;97.30;;;;;;4940312;28;20430;-80
2024/02/22 15:42:45;;;;;;;1.13;1.03;;;13.00;97.30;;;;;;4941059;29;20721;-81
2024/02/22 15:45:11;;;;;;;1.47;1.27;;;13.00;97.30;;;;;;4933907;29;20449;-79
2024/02/22 15:47:37;;;;;;;1.00;0.90;;;13.00;97.30;;;;;;4941876;29;20494;-79
2024/02/22 15:50:05;;;;;;;0.90;0.80;;;13.00;97.30;;;;;;4940717;29;20880;-79
2024/02/22 15:52:31;;;;;;;1.00;0.90;;;13.00;97.30;;;;;;4938517;29;20290;-82
2024/02/22 15:54:57;;;;;;;1.00;0.90;;;13.00;97.30;;;;;;4943141;29;20900;-82
2024/02/22 15:57:23;;;;;;;1.00;0.90;;;13.00;97.30;;;;;;4942039;29;20839;-81
2024/02/22 15:59:50;;;;;;;0.90;0.80;;;12.90;97.30;;;;;;4943110;29;20423;-81
2024/02/22 16:02:16;;;;;;;2.90;1.10;;;12.90;97.30;;;;;;4944708;28;20211;-80
2024/02/22 16:04:42;;;;;;;1.00;0.90;;;12.90;97.30;;;;;;4938333;29;20420;-81
2024/02/22 16:07:07;;;;;;;0.90;0.80;;;12.80;97.30;;;;;;4940892;29;20239;-82
2024/02/22 16:09:33;;;;;;;1.00;0.90;;;12.80;97.30;;;;;;4939883;29;20235;-80
2024/02/22 16:11:58;;;;;;;1.00;0.90;;;12.80;97.30;;;;;;4938394;29;20282;-81
2024/02/22 16:14:25;;;;;;;1.23;1.13;;;12.80;97.30;;;;;;4943936;29;20190;-81
2024/02/22 16:16:52;;;;;;;1.10;1.00;;;12.80;97.30;;;;;;4940676;29;20187;-82
2024/02/22 16:19:17;;;;;;;7.67;1.27;;;12.70;97.30;;;;;;4939050;28;21006;-81
2024/02/22 16:21:43;;;;;;;1.37;0.87;;;12.70;97.30;;;;;;4934585;28;20448;-79
2024/02/22 16:24:09;;;;;;;0.90;0.80;;;12.70;97.30;;;;;;4929610;29;20645;-82
2024/02/22 16:26:35;;;;;;;1.00;0.90;;;12.60;97.30;;;;;;4934883;29;20189;-81
2024/02/22 16:29:02;;;;;;;1.03;0.93;;;12.60;97.30;;;;;;4941415;28;20859;-80
2024/02/22 16:31:27;;;;;;;0.90;0.80;;;12.60;97.30;;;;;;4930860;29;20471;-81
2024/02/22 16:33:53;;;;;;;0.87;0.80;;;12.50;97.30;;;;;;4931459;29;20467;-80
2024/02/22 16:36:18;;;;;;;0.90;0.80;;;12.50;97.30;;;;;;4934612;29;20259;-81
2024/02/22 16:38:44;;;;;;;1.10;1.00;;;12.50;97.30;;;;;;4938823;29;20187;-80
2024/02/22 16:41:22;;;;;;;1.10;1.00;;;12.50;97.30;;;;;;4932836;29;20218;-81
2024/02/22 16:43:49;;;;;;;1.33;1.27;;;12.40;97.30;;;;;;4931753;29;20691;-78
2024/02/22 16:46:14;;;;;;;2.70;1.77;;;12.40;97.30;;;;;;4939916;29;20926;-76
2024/02/22 16:48:40;;;;;;;0.90;0.80;;;12.40;97.30;;;;;;4939696;29;20514;-75
2024/02/22 16:51:07;;;;;;;1.20;1.10;;;12.40;97.30;;;;;;4931867;29;20347;-79
2024/02/22 16:53:32;;;;;;;2.63;1.17;;;12.40;97.30;;;;;;4939099;29;20678;-79
2024/02/22 16:55:58;;;;;;;1.13;1.03;;;12.40;97.30;;;;;;4937107;29;20432;-81
2024/02/22 16:58:24;;;;;;;0.80;0.70;;;12.40;97.30;;;;;;4931546;29;20217;-77
2024/02/22 17:00:50;;;;;;;0.93;0.83;;;12.40;97.30;;;;;;4935993;29;20203;-80
2024/02/22 17:03:15;;;;;;;0.90;0.80;;;12.50;97.30;;;;;;4934007;29;20438;-82
2024/02/22 17:05:41;;;;;;;0.80;0.70;;;12.50;97.30;;;;;;4930750;29;20214;-77
2024/02/22 17:08:08;;;;;;;0.93;0.83;;;12.50;97.30;;;;;;4932287;29;20263;-78
2024/02/22 17:10:33;;;;;;;0.90;0.80;;;12.50;97.30;;;;;;4942939;28;20195;-77
2024/02/22 17:12:59;;;;;;;0.90;0.80;;;12.40;97.30;;;;;;4935819;29;20422;-75
2024/02/22 17:15:24;;;;;;;0.90;0.80;;;12.40;97.30;;;;;;4948315;29;20226;-78
2024/02/22 17:17:50;;;;;;;0.90;0.80;;;12.40;97.30;;;;;;4938663;29;20204;-77
2024/02/22 17:20:17;;;;;;;1.10;1.00;;;12.40;97.30;;;;;;4931811;29;20259;-77
2024/02/22 17:22:43;;;;;;;0.80;0.70;;;12.40;97.30;;;;;;4932385;29;20423;-78
2024/02/22 17:25:09;;;;;;;0.80;0.70;;;12.30;97.30;;;;;;4946581;29;20434;-74
2024/02/22 17:27:36;;;;;;;0.90;0.80;;;12.30;97.30;;;;;;4935219;29;20254;-80
2024/02/22 17:30:01;;;;;;;0.83;0.77;;;12.30;97.30;;;;;;4938344;29;20550;-76
2024/02/22 17:32:27;;;;;;;0.90;0.80;;;12.30;97.30;;;;;;4930099;29;21094;-77
2024/02/22 17:34:54;;;;;;;0.90;0.80;;;12.30;97.30;;;;;;4939536;29;20183;-77
2024/02/22 17:37:20;;;;;;;0.90;0.80;;;12.30;97.30;;;;;;4944517;29;20203;-81
2024/02/22 17:39:46;;;;;;;0.90;0.80;;;12.30;97.30;;;;;;4938888;29;20451;-75
2024/02/22 17:42:11;;;;;;;1.07;0.97;;;12.30;97.30;;;;;;4938580;29;20281;-79
2024/02/22 17:44:37;;;;;;;0.90;0.80;;;12.30;97.30;;;;;;4938542;29;20246;-79
2024/02/22 17:47:03;;;;;;;0.90;0.80;;;12.30;97.30;;;;;;4939096;29;20179;-80
2024/02/22 17:49:29;;;;;;;0.90;0.80;;;12.30;97.30;;;;;;4931848;29;20431;-76
2024/02/22 17:51:57;;;;;;;1.00;0.90;;;12.30;97.30;;;;;;4938295;29;20538;-77
2024/02/22 17:54:22;;;;;;;0.90;0.80;;;12.30;97.30;;;;;;4930478;29;20274;-75